sensor_id;sensor_type;location;lat;lon;timestamp;temperature;humidity
30148;DHT22;16960;49.404;8.248;2023-03-16T00:00:50;19.80;36.30
30148;DHT22;16960;49.404;8.248;2023-03-16T00:03:18;19.80;36.30
30148;DHT22;16960;49.404;8.248;2023-03-16T00:05:45;19.80;36.30
30148;DHT22;16960;49.404;8.248;2023-03-16T00:08:13;19.80;36.30
30148;DHT22;16960;49.404;8.248;2023-03-16T00:10:40;19.80;36.40
30148;DHT22;16960;49.404;8.248;2023-03-16T00:13:12;19.80;36.40
30148;DHT22;16960;49.404;8.248;2023-03-16T00:15:40;19.80;36.40
30148;DHT22;16960;49.404;8.248;2023-03-16T00:18:07;19.80;36.40
30148;DHT22;16960;49.404;8.248;2023-03-16T00:20:35;19.70;36.50
30148;DHT22;16960;49.404;8.248;2023-03-16T00:23:02;19.70;36.50
30148;DHT22;16960;49.404;8.248;2023-03-16T00:25:29;19.70;36.70
30148;DHT22;16960;49.404;8.248;2023-03-16T00:27:58;19.70;36.50
30148;DHT22;16960;49.404;8.248;2023-03-16T00:30:28;19.70;36.50
30148;DHT22;16960;49.404;8.248;2023-03-16T00:32:56;19.70;36.60
30148;DHT22;16960;49.404;8.248;2023-03-16T00:35:23;19.70;36.60
30148;DHT22;16960;49.404;8.248;2023-03-16T00:37:51;19.70;36.60
30148;DHT22;16960;49.404;8.248;2023-03-16T00:40:22;19.70;36.60
30148;DHT22;16960;49.404;8.248;2023-03-16T00:42:49;19.70;36.60
30148;DHT22;16960;49.404;8.248;2023-03-16T00:45:16;19.70;36.60
30148;DHT22;16960;49.404;8.248;2023-03-16T00:47:42;19.70;36.60
30148;DHT22;16960;49.404;8.248;2023-03-16T00:50:10;19.70;36.60
30148;DHT22;16960;49.404;8.248;2023-03-16T00:52:37;19.70;36.60
30148;DHT22;16960;49.404;8.248;2023-03-16T00:55:06;19.70;36.60
30148;DHT22;16960;49.404;8.248;2023-03-16T00:57:33;19.60;36.50
30148;DHT22;16960;49.404;8.248;2023-03-16T01:00:00;19.60;36.50
30148;DHT22;16960;49.404;8.248;2023-03-16T01:02:37;19.60;36.50
30148;DHT22;16960;49.404;8.248;2023-03-16T01:05:05;19.60;36.50
30148;DHT22;16960;49.404;8.248;2023-03-16T01:07:33;19.60;36.50
30148;DHT22;16960;49.404;8.248;2023-03-16T01:10:02;19.60;36.50
30148;DHT22;16960;49.404;8.248;2023-03-16T01:12:30;19.60;36.60
30148;DHT22;16960;49.404;8.248;2023-03-16T01:14:58;19.60;36.60
30148;DHT22;16960;49.404;8.248;2023-03-16T01:17:25;19.60;36.60
30148;DHT22;16960;49.404;8.248;2023-03-16T01:19:52;19.60;36.60
30148;DHT22;16960;49.404;8.248;2023-03-16T01:22:19;19.60;36.60
30148;DHT22;16960;49.404;8.248;2023-03-16T01:24:47;19.60;36.50
30148;DHT22;16960;49.404;8.248;2023-03-16T01:27:14;19.60;36.50
30148;DHT22;16960;49.404;8.248;2023-03-16T01:29:42;19.60;36.60
30148;DHT22;16960;49.404;8.248;2023-03-16T01:32:09;19.60;36.60
30148;DHT22;16960;49.404;8.248;2023-03-16T01:34:37;19.60;36.60
30148;DHT22;16960;49.404;8.248;2023-03-16T01:37:03;19.60;36.60
30148;DHT22;16960;49.404;8.248;2023-03-16T01:39:30;19.60;36.60
30148;DHT22;16960;49.404;8.248;2023-03-16T01:41:57;19.60;36.60
30148;DHT22;16960;49.404;8.248;2023-03-16T01:44:26;19.60;36.60
30148;DHT22;16960;49.404;8.248;2023-03-16T01:46:56;19.60;36.60
30148;DHT22;16960;49.404;8.248;2023-03-16T01:49:25;19.50;36.60
30148;DHT22;16960;49.404;8.248;2023-03-16T01:51:55;19.50;36.60
30148;DHT22;16960;49.404;8.248;2023-03-16T01:54:26;19.50;36.70
30148;DHT22;16960;49.404;8.248;2023-03-16T01:56:57;19.50;36.70
30148;DHT22;16960;49.404;8.248;2023-03-16T01:59:31;19.50;36.70
30148;DHT22;16960;49.404;8.248;2023-03-16T02:02:00;19.60;36.70
30148;DHT22;16960;49.404;8.248;2023-03-16T02:04:47;19.50;36.60
30148;DHT22;16960;49.404;8.248;2023-03-16T02:07:16;19.50;36.60
30148;DHT22;16960;49.404;8.248;2023-03-16T02:09:45;19.50;36.60
30148;DHT22;16960;49.404;8.248;2023-03-16T02:12:14;19.50;36.60
30148;DHT22;16960;49.404;8.248;2023-03-16T02:14:44;19.50;36.60
30148;DHT22;16960;49.404;8.248;2023-03-16T02:17:14;19.50;36.50
30148;DHT22;16960;49.404;8.248;2023-03-16T02:19:49;19.50;36.50
30148;DHT22;16960;49.404;8.248;2023-03-16T02:22:19;19.50;36.50
30148;DHT22;16960;49.404;8.248;2023-03-16T02:24:49;19.50;36.50
30148;DHT22;16960;49.404;8.248;2023-03-16T02:27:22;19.50;36.50
30148;DHT22;16960;49.404;8.248;2023-03-16T02:29:59;19.50;36.50
30148;DHT22;16960;49.404;8.248;2023-03-16T02:32:30;19.50;36.50
30148;DHT22;16960;49.404;8.248;2023-03-16T02:34:59;19.50;36.50
30148;DHT22;16960;49.404;8.248;2023-03-16T02:37:27;19.50;36.50
30148;DHT22;16960;49.404;8.248;2023-03-16T02:39:54;19.50;36.50
30148;DHT22;16960;49.404;8.248;2023-03-16T02:42:22;19.50;36.50
30148;DHT22;16960;49.404;8.248;2023-03-16T02:44:54;19.50;36.50
30148;DHT22;16960;49.404;8.248;2023-03-16T02:47:29;19.50;36.50
30148;DHT22;16960;49.404;8.248;2023-03-16T02:49:56;19.50;36.50
30148;DHT22;16960;49.404;8.248;2023-03-16T02:52:23;19.40;36.40
30148;DHT22;16960;49.404;8.248;2023-03-16T02:54:50;19.40;36.40
30148;DHT22;16960;49.404;8.248;2023-03-16T02:57:17;19.40;36.40
30148;DHT22;16960;49.404;8.248;2023-03-16T02:59:44;19.50;36.50
30148;DHT22;16960;49.404;8.248;2023-03-16T03:02:11;19.40;36.40
30148;DHT22;16960;49.404;8.248;2023-03-16T03:04:39;19.40;36.40
30148;DHT22;16960;49.404;8.248;2023-03-16T03:07:06;19.40;36.40
30148;DHT22;16960;49.404;8.248;2023-03-16T03:09:33;19.40;36.40
30148;DHT22;16960;49.404;8.248;2023-03-16T03:12:00;19.40;36.40
30148;DHT22;16960;49.404;8.248;2023-03-16T03:14:27;19.40;37.00
30148;DHT22;16960;49.404;8.248;2023-03-16T03:16:54;19.40;36.40
30148;DHT22;16960;49.404;8.248;2023-03-16T03:19:21;19.40;36.40
30148;DHT22;16960;49.404;8.248;2023-03-16T03:21:50;19.40;36.40
30148;DHT22;16960;49.404;8.248;2023-03-16T03:24:22;19.40;36.40
30148;DHT22;16960;49.404;8.248;2023-03-16T03:26:49;19.40;36.40
30148;DHT22;16960;49.404;8.248;2023-03-16T03:29:17;19.40;36.40
30148;DHT22;16960;49.404;8.248;2023-03-16T03:31:44;19.40;36.40
30148;DHT22;16960;49.404;8.248;2023-03-16T03:34:11;19.40;36.40
30148;DHT22;16960;49.404;8.248;2023-03-16T03:36:38;19.40;36.40
30148;DHT22;16960;49.404;8.248;2023-03-16T03:39:07;19.40;36.40
30148;DHT22;16960;49.404;8.248;2023-03-16T03:41:34;19.40;36.40
30148;DHT22;16960;49.404;8.248;2023-03-16T03:44:03;19.40;36.40
30148;DHT22;16960;49.404;8.248;2023-03-16T03:46:30;19.40;36.40
30148;DHT22;16960;49.404;8.248;2023-03-16T03:48:57;19.40;36.40
30148;DHT22;16960;49.404;8.248;2023-03-16T03:51:28;19.40;37.00
30148;DHT22;16960;49.404;8.248;2023-03-16T03:53:55;19.30;36.40
30148;DHT22;16960;49.404;8.248;2023-03-16T03:56:24;19.30;36.40
30148;DHT22;16960;49.404;8.248;2023-03-16T03:58:51;19.40;36.40
30148;DHT22;16960;49.404;8.248;2023-03-16T04:01:18;19.30;36.30
30148;DHT22;16960;49.404;8.248;2023-03-16T04:03:45;19.40;36.40
30148;DHT22;16960;49.404;8.248;2023-03-16T04:06:12;19.30;36.40
30148;DHT22;16960;49.404;8.248;2023-03-16T04:08:39;19.40;36.40
30148;DHT22;16960;49.404;8.248;2023-03-16T04:11:06;19.40;36.40
30148;DHT22;16960;49.404;8.248;2023-03-16T04:13:34;19.30;36.40
30148;DHT22;16960;49.404;8.248;2023-03-16T04:16:01;19.30;36.30
30148;DHT22;16960;49.404;8.248;2023-03-16T04:18:29;19.30;36.30
30148;DHT22;16960;49.404;8.248;2023-03-16T04:21:03;19.30;36.30
30148;DHT22;16960;49.404;8.248;2023-03-16T04:23:31;19.30;36.30
30148;DHT22;16960;49.404;8.248;2023-03-16T04:25:59;19.30;36.30
30148;DHT22;16960;49.404;8.248;2023-03-16T04:28:26;19.30;36.30
30148;DHT22;16960;49.404;8.248;2023-03-16T04:30:54;19.30;36.30
30148;DHT22;16960;49.404;8.248;2023-03-16T04:33:21;19.30;36.30
30148;DHT22;16960;49.404;8.248;2023-03-16T04:35:48;19.30;36.30
30148;DHT22;16960;49.404;8.248;2023-03-16T04:38:16;19.30;36.30
30148;DHT22;16960;49.404;8.248;2023-03-16T04:40:43;19.30;36.30
30148;DHT22;16960;49.404;8.248;2023-03-16T04:43:10;19.30;36.30
30148;DHT22;16960;49.404;8.248;2023-03-16T04:45:38;19.30;36.30
30148;DHT22;16960;49.404;8.248;2023-03-16T04:48:07;19.30;36.30
30148;DHT22;16960;49.404;8.248;2023-03-16T04:50:35;19.30;36.30
30148;DHT22;16960;49.404;8.248;2023-03-16T04:53:03;19.30;36.40
30148;DHT22;16960;49.404;8.248;2023-03-16T04:55:30;19.30;36.40
30148;DHT22;16960;49.404;8.248;2023-03-16T04:57:57;19.30;36.40
30148;DHT22;16960;49.404;8.248;2023-03-16T05:00:24;19.30;36.30
30148;DHT22;16960;49.404;8.248;2023-03-16T05:02:51;19.30;36.30
30148;DHT22;16960;49.404;8.248;2023-03-16T05:05:20;19.30;36.30
30148;DHT22;16960;49.404;8.248;2023-03-16T05:07:47;19.30;36.20
30148;DHT22;16960;49.404;8.248;2023-03-16T05:10:16;19.30;36.20
30148;DHT22;16960;49.404;8.248;2023-03-16T05:12:44;19.30;36.20
30148;DHT22;16960;49.404;8.248;2023-03-16T05:15:11;19.30;36.20
30148;DHT22;16960;49.404;8.248;2023-03-16T05:17:38;19.30;36.10
30148;DHT22;16960;49.404;8.248;2023-03-16T05:20:08;19.40;36.10
30148;DHT22;16960;49.404;8.248;2023-03-16T05:22:39;19.40;36.10
30148;DHT22;16960;49.404;8.248;2023-03-16T05:25:07;19.40;36.00
30148;DHT22;16960;49.404;8.248;2023-03-16T05:27:34;19.40;36.00
30148;DHT22;16960;49.404;8.248;2023-03-16T05:30:01;19.40;36.00
30148;DHT22;16960;49.404;8.248;2023-03-16T05:32:28;19.40;35.90
30148;DHT22;16960;49.404;8.248;2023-03-16T05:34:55;19.50;36.00
30148;DHT22;16960;49.404;8.248;2023-03-16T05:37:23;19.50;36.00
30148;DHT22;16960;49.404;8.248;2023-03-16T05:39:51;19.50;36.00
30148;DHT22;16960;49.404;8.248;2023-03-16T05:42:18;19.60;36.50
30148;DHT22;16960;49.404;8.248;2023-03-16T05:44:45;19.60;35.90
30148;DHT22;16960;49.404;8.248;2023-03-16T05:47:12;19.60;35.90
30148;DHT22;16960;49.404;8.248;2023-03-16T05:49:39;19.60;35.90
30148;DHT22;16960;49.404;8.248;2023-03-16T05:52:06;19.70;35.90
30148;DHT22;16960;49.404;8.248;2023-03-16T05:54:33;19.70;35.90
30148;DHT22;16960;49.404;8.248;2023-03-16T05:57:02;19.70;35.90
30148;DHT22;16960;49.404;8.248;2023-03-16T05:59:31;19.70;35.90
30148;DHT22;16960;49.404;8.248;2023-03-16T06:01:58;19.70;35.90
30148;DHT22;16960;49.404;8.248;2023-03-16T06:04:25;19.80;35.80
30148;DHT22;16960;49.404;8.248;2023-03-16T06:06:53;19.80;35.80
30148;DHT22;16960;49.404;8.248;2023-03-16T06:09:20;19.80;35.70
30148;DHT22;16960;49.404;8.248;2023-03-16T06:11:47;19.80;35.70
30148;DHT22;16960;49.404;8.248;2023-03-16T06:14:15;19.90;35.80
30148;DHT22;16960;49.404;8.248;2023-03-16T06:16:42;19.90;35.80
30148;DHT22;16960;49.404;8.248;2023-03-16T06:19:09;19.90;35.70
30148;DHT22;16960;49.404;8.248;2023-03-16T06:21:36;19.90;35.70
30148;DHT22;16960;49.404;8.248;2023-03-16T06:24:03;19.90;35.70
30148;DHT22;16960;49.404;8.248;2023-03-16T06:26:32;20.00;35.60
30148;DHT22;16960;49.404;8.248;2023-03-16T06:28:59;20.00;35.60
30148;DHT22;16960;49.404;8.248;2023-03-16T06:31:27;20.00;35.60
30148;DHT22;16960;49.404;8.248;2023-03-16T06:33:54;20.00;35.60
30148;DHT22;16960;49.404;8.248;2023-03-16T06:36:21;20.00;35.60
30148;DHT22;16960;49.404;8.248;2023-03-16T06:38:48;20.10;35.70
30148;DHT22;16960;49.404;8.248;2023-03-16T06:41:15;20.10;35.60
30148;DHT22;16960;49.404;8.248;2023-03-16T06:43:42;20.10;35.60
30148;DHT22;16960;49.404;8.248;2023-03-16T06:46:09;20.10;35.60
30148;DHT22;16960;49.404;8.248;2023-03-16T06:48:37;20.10;35.50
30148;DHT22;16960;49.404;8.248;2023-03-16T06:51:04;20.10;36.20
30148;DHT22;16960;49.404;8.248;2023-03-16T06:53:32;20.20;35.60
30148;DHT22;16960;49.404;8.248;2023-03-16T06:55:59;20.20;35.60
30148;DHT22;16960;49.404;8.248;2023-03-16T06:58:26;20.20;35.50
30148;DHT22;16960;49.404;8.248;2023-03-16T07:00:53;20.20;35.40
30148;DHT22;16960;49.404;8.248;2023-03-16T07:03:19;20.20;35.30
30148;DHT22;16960;49.404;8.248;2023-03-16T07:05:48;20.20;35.30
30148;DHT22;16960;49.404;8.248;2023-03-16T07:08:15;20.20;35.10
30148;DHT22;16960;49.404;8.248;2023-03-16T07:10:42;20.30;35.10
30148;DHT22;16960;49.404;8.248;2023-03-16T07:13:08;20.30;35.10
30148;DHT22;16960;49.404;8.248;2023-03-16T07:15:35;20.30;35.00
30148;DHT22;16960;49.404;8.248;2023-03-16T07:18:02;20.30;34.90
30148;DHT22;16960;49.404;8.248;2023-03-16T07:20:29;20.30;34.80
30148;DHT22;16960;49.404;8.248;2023-03-16T07:22:58;20.30;34.70
30148;DHT22;16960;49.404;8.248;2023-03-16T07:25:25;20.30;34.60
30148;DHT22;16960;49.404;8.248;2023-03-16T07:27:52;20.30;34.80
30148;DHT22;16960;49.404;8.248;2023-03-16T07:30:19;20.40;34.70
30148;DHT22;16960;49.404;8.248;2023-03-16T07:32:46;20.40;34.60
30148;DHT22;16960;49.404;8.248;2023-03-16T07:35:13;20.40;34.40
30148;DHT22;16960;49.404;8.248;2023-03-16T07:37:40;20.40;34.30
30148;DHT22;16960;49.404;8.248;2023-03-16T07:40:10;20.40;34.20
30148;DHT22;16960;49.404;8.248;2023-03-16T07:42:38;20.50;34.20
30148;DHT22;16960;49.404;8.248;2023-03-16T07:45:06;20.50;34.20
30148;DHT22;16960;49.404;8.248;2023-03-16T07:47:34;20.50;34.10
30148;DHT22;16960;49.404;8.248;2023-03-16T07:50:01;20.50;34.00
30148;DHT22;16960;49.404;8.248;2023-03-16T07:52:28;20.50;33.90
30148;DHT22;16960;49.404;8.248;2023-03-16T07:54:55;20.60;33.90
30148;DHT22;16960;49.404;8.248;2023-03-16T07:57:23;20.60;33.70
30148;DHT22;16960;49.404;8.248;2023-03-16T07:59:50;20.60;33.60
30148;DHT22;16960;49.404;8.248;2023-03-16T08:02:19;20.60;33.50
30148;DHT22;16960;49.404;8.248;2023-03-16T08:04:46;20.70;33.50
30148;DHT22;16960;49.404;8.248;2023-03-16T08:07:14;20.70;33.40
30148;DHT22;16960;49.404;8.248;2023-03-16T08:09:41;20.80;33.40
30148;DHT22;16960;49.404;8.248;2023-03-16T08:12:09;20.80;33.30
30148;DHT22;16960;49.404;8.248;2023-03-16T08:14:37;20.80;33.30
30148;DHT22;16960;49.404;8.248;2023-03-16T08:17:05;20.80;33.20
30148;DHT22;16960;49.404;8.248;2023-03-16T08:19:33;20.80;33.10
30148;DHT22;16960;49.404;8.248;2023-03-16T08:22:00;20.80;33.00
30148;DHT22;16960;49.404;8.248;2023-03-16T08:24:28;20.90;33.10
30148;DHT22;16960;49.404;8.248;2023-03-16T08:26:56;20.90;33.20
30148;DHT22;16960;49.404;8.248;2023-03-16T08:29:23;20.90;33.10
30148;DHT22;16960;49.404;8.248;2023-03-16T08:31:53;20.90;33.10
30148;DHT22;16960;49.404;8.248;2023-03-16T08:34:20;20.90;33.20
30148;DHT22;16960;49.404;8.248;2023-03-16T08:36:48;20.90;33.10
30148;DHT22;16960;49.404;8.248;2023-03-16T08:39:15;20.90;33.10
30148;DHT22;16960;49.404;8.248;2023-03-16T08:41:42;20.90;33.10
30148;DHT22;16960;49.404;8.248;2023-03-16T08:44:10;20.90;33.10
30148;DHT22;16960;49.404;8.248;2023-03-16T08:46:37;21.00;33.30
30148;DHT22;16960;49.404;8.248;2023-03-16T08:49:06;21.00;33.30
30148;DHT22;16960;49.404;8.248;2023-03-16T08:51:33;21.00;33.20
30148;DHT22;16960;49.404;8.248;2023-03-16T08:54:01;21.00;33.30
30148;DHT22;16960;49.404;8.248;2023-03-16T08:56:28;21.00;33.20
30148;DHT22;16960;49.404;8.248;2023-03-16T08:58:55;21.00;33.20
30148;DHT22;16960;49.404;8.248;2023-03-16T09:01:23;20.90;33.20
30148;DHT22;16960;49.404;8.248;2023-03-16T09:03:50;21.00;33.20
30148;DHT22;16960;49.404;8.248;2023-03-16T09:06:18;21.00;33.10
30148;DHT22;16960;49.404;8.248;2023-03-16T09:08:46;21.00;33.30
30148;DHT22;16960;49.404;8.248;2023-03-16T09:11:15;21.00;33.00
30148;DHT22;16960;49.404;8.248;2023-03-16T09:13:43;21.00;33.10
30148;DHT22;16960;49.404;8.248;2023-03-16T09:16:11;21.00;33.10
30148;DHT22;16960;49.404;8.248;2023-03-16T09:18:40;21.00;33.20
30148;DHT22;16960;49.404;8.248;2023-03-16T09:21:08;21.00;33.10
30148;DHT22;16960;49.404;8.248;2023-03-16T09:23:40;21.10;33.20
30148;DHT22;16960;49.404;8.248;2023-03-16T09:26:08;21.10;33.30
30148;DHT22;16960;49.404;8.248;2023-03-16T09:28:37;21.10;33.30
30148;DHT22;16960;49.404;8.248;2023-03-16T09:31:06;21.10;33.20
30148;DHT22;16960;49.404;8.248;2023-03-16T09:33:34;21.10;33.00
30148;DHT22;16960;49.404;8.248;2023-03-16T09:36:02;21.10;33.20
30148;DHT22;16960;49.404;8.248;2023-03-16T09:38:29;21.10;33.10
30148;DHT22;16960;49.404;8.248;2023-03-16T09:41:01;21.10;33.00
30148;DHT22;16960;49.404;8.248;2023-03-16T09:43:50;21.10;33.10
30148;DHT22;16960;49.404;8.248;2023-03-16T09:46:25;21.10;32.80
30148;DHT22;16960;49.404;8.248;2023-03-16T09:48:54;21.20;33.00
30148;DHT22;16960;49.404;8.248;2023-03-16T09:51:31;21.20;33.00
30148;DHT22;16960;49.404;8.248;2023-03-16T09:54:02;21.20;33.00
30148;DHT22;16960;49.404;8.248;2023-03-16T09:56:38;21.20;33.10
30148;DHT22;16960;49.404;8.248;2023-03-16T09:59:10;21.20;33.00
30148;DHT22;16960;49.404;8.248;2023-03-16T10:01:45;21.20;33.10
30148;DHT22;16960;49.404;8.248;2023-03-16T10:04:23;21.20;33.10
30148;DHT22;16960;49.404;8.248;2023-03-16T10:07:02;21.20;33.10
30148;DHT22;16960;49.404;8.248;2023-03-16T10:09:35;21.20;33.10
30148;DHT22;16960;49.404;8.248;2023-03-16T10:12:06;21.20;33.10
30148;DHT22;16960;49.404;8.248;2023-03-16T10:14:39;21.20;33.40
30148;DHT22;16960;49.404;8.248;2023-03-16T10:17:12;21.30;33.40
30148;DHT22;16960;49.404;8.248;2023-03-16T10:19:44;21.30;33.30
30148;DHT22;16960;49.404;8.248;2023-03-16T10:22:18;21.40;33.30
30148;DHT22;16960;49.404;8.248;2023-03-16T10:24:57;21.40;33.30
30148;DHT22;16960;49.404;8.248;2023-03-16T10:27:30;21.50;33.30
30148;DHT22;16960;49.404;8.248;2023-03-16T10:29:58;21.50;33.30
30148;DHT22;16960;49.404;8.248;2023-03-16T10:32:30;21.60;33.30
30148;DHT22;16960;49.404;8.248;2023-03-16T10:35:02;21.70;33.30
30148;DHT22;16960;49.404;8.248;2023-03-16T10:37:31;21.70;33.30
30148;DHT22;16960;49.404;8.248;2023-03-16T10:39:59;21.70;33.30
30148;DHT22;16960;49.404;8.248;2023-03-16T10:42:28;21.70;33.30
30148;DHT22;16960;49.404;8.248;2023-03-16T10:44:59;21.80;33.30
30148;DHT22;16960;49.404;8.248;2023-03-16T10:47:29;21.80;33.30
30148;DHT22;16960;49.404;8.248;2023-03-16T10:49:57;21.80;33.30
30148;DHT22;16960;49.404;8.248;2023-03-16T10:52:31;21.80;33.30
30148;DHT22;16960;49.404;8.248;2023-03-16T10:55:01;21.80;33.30
30148;DHT22;16960;49.404;8.248;2023-03-16T10:57:35;21.80;33.30
30148;DHT22;16960;49.404;8.248;2023-03-16T11:00:06;21.80;33.90
30148;DHT22;16960;49.404;8.248;2023-03-16T11:02:37;21.80;33.30
30148;DHT22;16960;49.404;8.248;2023-03-16T11:05:13;21.80;33.30
30148;DHT22;16960;49.404;8.248;2023-03-16T11:07:47;21.90;33.40
30148;DHT22;16960;49.404;8.248;2023-03-16T11:10:26;21.80;33.20
30148;DHT22;16960;49.404;8.248;2023-03-16T11:13:00;21.90;33.40
30148;DHT22;16960;49.404;8.248;2023-03-16T11:15:36;21.90;33.90
30148;DHT22;16960;49.404;8.248;2023-03-16T11:18:04;21.90;33.40
30148;DHT22;16960;49.404;8.248;2023-03-16T11:20:34;21.90;33.40
30148;DHT22;16960;49.404;8.248;2023-03-16T11:23:01;21.90;33.30
30148;DHT22;16960;49.404;8.248;2023-03-16T11:25:32;22.00;33.30
30148;DHT22;16960;49.404;8.248;2023-03-16T11:28:10;21.90;33.30
30148;DHT22;16960;49.404;8.248;2023-03-16T11:30:40;21.90;33.30
30148;DHT22;16960;49.404;8.248;2023-03-16T11:33:10;21.90;33.30
30148;DHT22;16960;49.404;8.248;2023-03-16T11:35:45;21.90;33.30
30148;DHT22;16960;49.404;8.248;2023-03-16T11:38:15;22.00;33.30
30148;DHT22;16960;49.404;8.248;2023-03-16T11:40:52;22.00;33.20
30148;DHT22;16960;49.404;8.248;2023-03-16T11:43:49;22.00;33.80
30148;DHT22;16960;49.404;8.248;2023-03-16T11:46:21;22.00;33.10
30148;DHT22;16960;49.404;8.248;2023-03-16T11:49:27;22.10;33.20
30148;DHT22;16960;49.404;8.248;2023-03-16T11:52:05;22.10;33.10
30148;DHT22;16960;49.404;8.248;2023-03-16T11:54:48;22.20;33.20
30148;DHT22;16960;49.404;8.248;2023-03-16T11:57:29;22.20;33.20
30148;DHT22;16960;49.404;8.248;2023-03-16T12:00:19;22.30;33.20
30148;DHT22;16960;49.404;8.248;2023-03-16T12:03:06;22.30;33.10
30148;DHT22;16960;49.404;8.248;2023-03-16T12:05:54;22.40;33.10
30148;DHT22;16960;49.404;8.248;2023-03-16T12:08:43;22.40;33.00
30148;DHT22;16960;49.404;8.248;2023-03-16T12:11:13;22.40;33.00
30148;DHT22;16960;49.404;8.248;2023-03-16T12:14:03;22.40;33.10
30148;DHT22;16960;49.404;8.248;2023-03-16T12:16:38;22.50;33.10
30148;DHT22;16960;49.404;8.248;2023-03-16T12:19:13;22.60;33.00
30148;DHT22;16960;49.404;8.248;2023-03-16T12:21:45;22.60;33.00
30148;DHT22;16960;49.404;8.248;2023-03-16T12:24:18;22.60;33.00
30148;DHT22;16960;49.404;8.248;2023-03-16T12:26:46;22.60;33.00
30148;DHT22;16960;49.404;8.248;2023-03-16T12:29:23;22.60;33.10
30148;DHT22;16960;49.404;8.248;2023-03-16T12:31:58;22.60;33.00
30148;DHT22;16960;49.404;8.248;2023-03-16T12:34:32;22.60;33.10
30148;DHT22;16960;49.404;8.248;2023-03-16T12:37:17;22.60;33.10
30148;DHT22;16960;49.404;8.248;2023-03-16T12:40:16;22.60;33.20
30148;DHT22;16960;49.404;8.248;2023-03-16T12:42:55;22.60;33.10
30148;DHT22;16960;49.404;8.248;2023-03-16T12:45:30;22.60;33.20
30148;DHT22;16960;49.404;8.248;2023-03-16T12:48:07;22.60;33.20
30148;DHT22;16960;49.404;8.248;2023-03-16T12:50:47;22.60;33.20
30148;DHT22;16960;49.404;8.248;2023-03-16T12:53:25;22.60;33.20
30148;DHT22;16960;49.404;8.248;2023-03-16T12:55:53;22.60;33.20
30148;DHT22;16960;49.404;8.248;2023-03-16T12:58:22;22.60;33.20
30148;DHT22;16960;49.404;8.248;2023-03-16T13:00:55;22.60;33.30
30148;DHT22;16960;49.404;8.248;2023-03-16T13:03:24;22.60;33.30
30148;DHT22;16960;49.404;8.248;2023-03-16T13:05:54;22.60;33.30
30148;DHT22;16960;49.404;8.248;2023-03-16T13:08:23;22.60;33.30
30148;DHT22;16960;49.404;8.248;2023-03-16T13:11:02;22.70;33.30
30148;DHT22;16960;49.404;8.248;2023-03-16T13:13:29;22.70;33.30
30148;DHT22;16960;49.404;8.248;2023-03-16T13:16:03;22.70;33.30
30148;DHT22;16960;49.404;8.248;2023-03-16T13:18:38;22.70;33.30
30148;DHT22;16960;49.404;8.248;2023-03-16T13:21:18;22.80;33.30
30148;DHT22;16960;49.404;8.248;2023-03-16T13:23:58;22.80;33.30
30148;DHT22;16960;49.404;8.248;2023-03-16T13:26:37;22.80;33.20
30148;DHT22;16960;49.404;8.248;2023-03-16T13:29:17;22.90;33.20
30148;DHT22;16960;49.404;8.248;2023-03-16T13:31:45;22.90;33.20
30148;DHT22;16960;49.404;8.248;2023-03-16T13:34:19;22.90;33.20
30148;DHT22;16960;49.404;8.248;2023-03-16T13:36:51;22.90;33.10
30148;DHT22;16960;49.404;8.248;2023-03-16T13:39:20;22.90;33.10
30148;DHT22;16960;49.404;8.248;2023-03-16T13:41:58;22.90;33.10
30148;DHT22;16960;49.404;8.248;2023-03-16T13:44:26;23.00;33.10
30148;DHT22;16960;49.404;8.248;2023-03-16T13:46:54;23.00;33.10
30148;DHT22;16960;49.404;8.248;2023-03-16T13:49:22;23.00;33.10
30148;DHT22;16960;49.404;8.248;2023-03-16T13:51:49;23.00;33.00
30148;DHT22;16960;49.404;8.248;2023-03-16T13:54:24;23.00;33.10
30148;DHT22;16960;49.404;8.248;2023-03-16T13:56:55;23.00;33.10
30148;DHT22;16960;49.404;8.248;2023-03-16T13:59:23;23.00;33.00
30148;DHT22;16960;49.404;8.248;2023-03-16T14:01:54;22.90;33.10
30148;DHT22;16960;49.404;8.248;2023-03-16T14:04:28;23.00;33.10
30148;DHT22;16960;49.404;8.248;2023-03-16T14:06:56;22.90;33.30
30148;DHT22;16960;49.404;8.248;2023-03-16T14:09:27;22.90;33.40
30148;DHT22;16960;49.404;8.248;2023-03-16T14:11:55;22.90;33.40
30148;DHT22;16960;49.404;8.248;2023-03-16T14:14:26;22.90;33.30
30148;DHT22;16960;49.404;8.248;2023-03-16T14:16:59;22.90;33.20
30148;DHT22;16960;49.404;8.248;2023-03-16T14:19:36;22.90;33.20
30148;DHT22;16960;49.404;8.248;2023-03-16T14:22:12;22.90;33.20
30148;DHT22;16960;49.404;8.248;2023-03-16T14:24:39;22.90;33.20
30148;DHT22;16960;49.404;8.248;2023-03-16T14:27:19;22.80;33.20
30148;DHT22;16960;49.404;8.248;2023-03-16T14:29:53;22.80;33.30
30148;DHT22;16960;49.404;8.248;2023-03-16T14:32:22;22.90;33.40
30148;DHT22;16960;49.404;8.248;2023-03-16T14:35:00;22.80;33.40
30148;DHT22;16960;49.404;8.248;2023-03-16T14:37:34;22.80;33.40
30148;DHT22;16960;49.404;8.248;2023-03-16T14:40:04;22.80;33.40
30148;DHT22;16960;49.404;8.248;2023-03-16T14:42:32;22.80;33.50
30148;DHT22;16960;49.404;8.248;2023-03-16T14:45:00;22.80;33.50
30148;DHT22;16960;49.404;8.248;2023-03-16T14:47:38;22.80;33.50
30148;DHT22;16960;49.404;8.248;2023-03-16T14:50:13;22.80;33.50
30148;DHT22;16960;49.404;8.248;2023-03-16T14:52:41;22.80;33.50
30148;DHT22;16960;49.404;8.248;2023-03-16T14:55:12;22.70;33.50
30148;DHT22;16960;49.404;8.248;2023-03-16T14:57:40;22.80;33.60
30148;DHT22;16960;49.404;8.248;2023-03-16T15:00:09;22.80;33.60
30148;DHT22;16960;49.404;8.248;2023-03-16T15:02:39;22.80;33.60
30148;DHT22;16960;49.404;8.248;2023-03-16T15:05:09;22.80;33.70
30148;DHT22;16960;49.404;8.248;2023-03-16T15:07:42;22.80;34.30
30148;DHT22;16960;49.404;8.248;2023-03-16T15:10:20;22.80;33.70
30148;DHT22;16960;49.404;8.248;2023-03-16T15:12:48;22.80;33.70
30148;DHT22;16960;49.404;8.248;2023-03-16T15:15:20;22.80;33.70
30148;DHT22;16960;49.404;8.248;2023-03-16T15:17:49;22.80;33.70
30148;DHT22;16960;49.404;8.248;2023-03-16T15:20:19;22.80;33.70
30148;DHT22;16960;49.404;8.248;2023-03-16T15:22:49;22.80;33.70
30148;DHT22;16960;49.404;8.248;2023-03-16T15:25:21;22.80;33.70
30148;DHT22;16960;49.404;8.248;2023-03-16T15:27:50;22.80;33.60
30148;DHT22;16960;49.404;8.248;2023-03-16T15:30:19;22.80;33.70
30148;DHT22;16960;49.404;8.248;2023-03-16T15:32:46;22.80;33.70
30148;DHT22;16960;49.404;8.248;2023-03-16T15:35:13;22.80;33.70
30148;DHT22;16960;49.404;8.248;2023-03-16T15:37:43;22.80;33.70
30148;DHT22;16960;49.404;8.248;2023-03-16T15:40:19;22.80;33.70
30148;DHT22;16960;49.404;8.248;2023-03-16T15:42:46;22.80;33.70
30148;DHT22;16960;49.404;8.248;2023-03-16T15:45:15;22.80;33.80
30148;DHT22;16960;49.404;8.248;2023-03-16T15:47:43;22.80;33.70